Aviation Digital Data Service (ADDS)

Output produced by METARs form (1822 UTC 22 November 2017)
found at http://www.aviationweather.gov/adds/metars/
 
KEAR 221725Z 2218/2318 20016G23KT P6SM SCT250 
     FM222200 21010KT P6SM SCT200 
     FM230000 VRB06KT P6SM SCT250
       
KEAT 221746Z 2218/2318 00000KT P6SM SCT005 OVC080 
     TEMPO 2218/2221 1SM BR BKN005 
     FM230000 VRB03KT 6SM BR VCSH BKN060 
     FM230700 32005KT P6SM -SHRA BKN050 OVC100
       
KEAU 221732Z 2218/2318 19008KT P6SM OVC200 
     FM222200 17005KT P6SM OVC090 
     FM230900 VRB03KT P6SM SKC
       
KECG 221749Z 2218/2318 34012G18KT P6SM SCT050 
     FM222300 35009KT P6SM SKC 
     FM231500 35008KT P6SM SCT250
       
TAF KEDW 221800Z 2218/2324 VRB06KT 9999 SKC QNH3019INS 
     TEMPO 2220/2224 05012KT 
     BECMG 2303/2304 VRB06KT 9999 BKN250 QNH3011INS TX26/2223Z TN04/2314Z
       
KEED 221720Z 2218/2318 01011KT P6SM SKC 
     FM230200 31006KT P6SM SKC AMD NOT SKED
       
KEET 221738Z 2218/2318 01007KT P6SM SCT250 
     FM230000 34003KT P6SM SKC 
     FM231400 01004KT P6SM SCT025
       
TAF AMD KEFD 220730Z 2207/2310 04012KT 9999 BKN020 QNH3005INS 
     TEMPO 2207/2209 BKN015 
     BECMG 2209/2210 02012G18KT 9999 OVC020 QNH3006INS 
     BECMG 2214/2215 01015G25KT 9999 SCT025 QNH3018INS 
     BECMG 2223/2224 36009KT 9999 SKC QNH3020INS TX22/2221Z TN12/2211Z
       
KEGE 221733Z 2218/2318 VRB03KT P6SM BKN060 BKN250 
     FM222100 25005KT P6SM FEW060 BKN250 
     FM230100 VRB03KT P6SM SCT060 BKN250
       
TAF KEGI 221800Z 2218/2400 01009KT 9999 FEW030 BKN120 BKN250 QNH3000INS 
     BECMG 2223/2224 02010KT 9999 VCSH BKN030 BKN100 OVC180 QNH2998INS 
     BECMG 2305/2306 02012KT 9999 NSW BKN020 BKN150 BKN250 QNH2998INS 
     BECMG 2313/2314 01012KT 9999 BKN030 BKN250 QNH3000INS 
     BECMG 2318/2319 02010KT 9999 SCT040 BKN250 QNH2995INS TX22/2219Z TN12/2312Z FCST BY USAF WX MET TECH
       
KEKN 221728Z 2218/2318 31009G16KT P6SM OVC035 
     FM230000 31004KT P6SM SCT015
       
KZZV 221722Z 2218/2318 33007KT P6SM BKN035 
     FM222100 33006KT P6SM SCT090
       
KELP 221720Z 2218/2318 16005KT P6SM SCT250 
     FM230100 VRB04KT P6SM FEW250
       
KELY 221741Z 2218/2318 18010KT P6SM SKC 
     FM230300 18010KT P6SM SCT250
       
KEKO 221741Z 2218/2318 VRB03KT P6SM VCFG SCT250 
     TEMPO 2218/2219 1/2SM FG VV001 
     FM222000 24005KT P6SM BKN200 
     FM230200 VRB03KT P6SM BKN200
       
TAF KEND 221100Z 2211/2317 02009KT 9999 SCT250 QNH3015INS 
     BECMG 2220/2221 17006KT 9999 SKC QNH3018INS TX16/2221Z TNM05/2212Z
       
KENV 221725Z 2218/2318 VRB05KT P6SM SCT200
       
KENW 221726Z 2218/2318 24005KT P6SM SKC 
     FM222100 22006KT P6SM BKN250 
     FM230300 21007KT P6SM OVC060 
     FM231500 24009KT P6SM FEW250
       
KERI 221730Z 2218/2318 32010KT P6SM -SN OVC025 
     FM222100 30008KT P6SM VCSH SCT025 OVC035 
     FM230600 23006KT P6SM BKN035 
     FM231400 20008KT P6SM BKN035 OVC100
       
KEUG 221734Z 2218/2318 18005KT P6SM -RA SCT040 BKN060 OVC100 
     FM230600 19008KT 6SM -RA BKN035 OVC050 
     FM230900 19011KT 4SM -RADZ BR SCT015 OVC035
       
KEUL 221720Z 2218/2318 14005KT P6SM SCT100 BKN200 
     TEMPO 2218/2219 4SM BR
       
KEVV 221720Z 2218/2318 01008KT P6SM SCT250 
     FM230000 00000KT P6SM SCT250 
     FM231500 20005KT P6SM SCT100
       
KEVW 221725Z 2218/2318 24011KT P6SM FEW060 SCT200 
     FM230100 22007KT P6SM BKN200
       
KEWN 221746Z 2218/2318 34012G20KT P6SM SCT050 
     FM222100 01007KT P6SM FEW200
       
KEWR 221730Z 2218/2324 33016G24KT P6SM SCT060 
     TEMPO 2218/2220 BKN060 
     FM222300 33017G25KT P6SM SKC 
     FM230300 32013KT P6SM SKC 
     FM230700 32008KT P6SM SKC 
     FM231400 30007KT P6SM SCT250 
     FM231900 27007KT P6SM SCT150 SCT250
       
KEYW 221727Z 2218/2318 10008KT P6SM SCT020 
     FM231700 18010KT P6SM VCSH SCT025 BKN200